Weather History for KHEI - February, 2013

Change the Weather History Date:

Thursday, February 21, 2013

  Actual Average Record
Temperature  
Mean Temperature 20 °F -  
Max Temperature 24 °F 33 °F - ()
Min Temperature 15 °F 11 °F - ()
Degree Days  
Heating Degree Days 45 43  
Month to date heating degree days 809 947  
Since 1 July heating degree days 5697 6023  
Moisture  
Dew Point 15 °F    
Average Humidity 84    
Maximum Humidity 92    
Minimum Humidity 80    
Precipitation  
Precipitation 0.01 in 0.01 in - ()
Month to date precipitation 0.05 0.33  
Year to date precipitation 0.08 0.64  
Sea Level Pressure  
Sea Level Pressure 30.04 in    
Wind  
Wind Speed 9 mph (SE)    
Max Wind Speed 15 mph    
Max Gust Speed 17 mph    
Visibility 4 miles    
Events Snow    
T = Trace of Precipitation, MM = Missing Value Source: NWS Daily Summary

Daily Weather History Graph

Daily Weather History Graph

Search for Another Location

Airport or City:

Trip Planner

Search our weather history database for the weather conditions in past years. The results will help you decide how hot, cold, wet, or windy it might be!

Date:

Astronomy

Feb. 21, 2013 Rise Set
Actual Time 6:42 AM MST 5:26 PM MST
Civil Twilight 6:12 AM MST 5:56 PM MST
Nautical Twilight 5:37 AM MST 6:31 PM MST
Astronomical Twilight 5:03 AM MST 7:05 PM MST
Moon 1:34 PM MST (2/21) 3:57 AM MST (2/21)
Length of Visible Light 11h 43m
Length of Day
10h 43m
Waxing Gibbous, 84% of the Moon is Illuminated
Feb 21
Waxing Gibbous
Feb 25
Full
Mar 4
Last Quarter
Mar 11
New
Mar 19
First Quarter

Hourly Weather History & Observations

Time (MST) Temp. Windchill Dew Point Humidity Pressure Visibility Wind Dir Wind Speed Gust Speed Precip Events Conditions
12:18 AM 15.8 °F 4.2 °F 10.4 °F 79% 29.97 in 3.0 mi SE 9.2 mph - 0.00 in Snow Light Snow
12:53 AM 15.1 °F 1.8 °F 10.9 °F 84% 30.11 in 5.0 mi SE 11.5 mph - 0.00 in Snow Light Snow
1:53 AM 16.0 °F 4.4 °F 12.0 °F 84% 30.10 in 7.0 mi ESE 9.2 mph - 0.00 in Snow Light Snow
2:33 AM 15.8 °F 4.2 °F 12.2 °F 86% 29.97 in 10.0 mi ESE 9.2 mph - 0.00 in   Overcast
2:53 AM 16.0 °F 4.4 °F 12.0 °F 84% 30.10 in 10.0 mi SE 9.2 mph - 0.00 in   Overcast
3:53 AM 16.0 °F 4.4 °F 12.0 °F 84% 30.10 in 10.0 mi ESE 9.2 mph - N/A   Overcast
4:18 AM 15.8 °F 3.4 °F 12.2 °F 86% 29.97 in 10.0 mi ESE 10.4 mph - N/A   Overcast
4:53 AM 16.0 °F 5.3 °F 12.9 °F 88% 30.12 in 10.0 mi ESE 8.1 mph - N/A   Overcast
5:53 AM 16.0 °F 6.3 °F 12.9 °F 88% 30.12 in 10.0 mi ESE 6.9 mph - N/A   Overcast
6:53 AM 16.0 °F 3.6 °F 12.0 °F 84% 30.14 in 8.0 mi SE 10.4 mph - N/A   Overcast
7:37 AM 15.8 °F 2.7 °F 12.2 °F 86% 30.02 in 2.5 mi SE 11.5 mph - 0.00 in Snow Light Snow
7:53 AM 16.0 °F 3.6 °F 12.0 °F 84% 30.16 in 1.8 mi SE 10.4 mph - 0.00 in Snow Light Snow
8:25 AM 17.6 °F 8.2 °F 12.2 °F 79% 30.02 in 1.0 mi SE 6.9 mph - 0.00 in Snow Light Snow
8:32 AM 17.6 °F 7.3 °F 12.2 °F 79% 30.02 in 0.8 mi SE 8.1 mph - 0.01 in Snow Light Snow
8:40 AM 17.6 °F 6.4 °F 12.2 °F 79% 30.02 in 1.2 mi SE 9.2 mph - 0.01 in Snow Light Snow
8:53 AM 17.1 °F 5.8 °F 12.9 °F 84% 30.16 in 1.0 mi SE 9.2 mph - 0.01 in Snow Light Snow
9:37 AM 19.4 °F 10.4 °F 12.2 °F 74% 30.02 in 1.8 mi SSE 6.9 mph - 0.00 in Snow Light Snow
9:46 AM 19.4 °F 7.2 °F 12.2 °F 74% 30.02 in 2.5 mi SE 11.5 mph - 0.00 in Snow Light Snow
9:53 AM 19.9 °F 8.6 °F 14.0 °F 78% 30.15 in 3.0 mi SSE 10.4 mph - 0.00 in   Haze
10:44 AM 21.2 °F 8.9 °F 15.8 °F 80% 30.02 in 2.5 mi SE 12.7 mph - 0.00 in Snow Light Snow
10:51 AM 21.2 °F 10.1 °F 15.8 °F 80% 30.02 in 4.0 mi SE 10.4 mph - 0.00 in Snow Light Snow
10:53 AM 21.0 °F 9.3 °F 15.1 °F 78% 30.15 in 5.0 mi SE 11.5 mph - 0.00 in Snow Light Snow
11:02 AM 21.2 °F 8.9 °F 15.8 °F 80% 30.02 in 10.0 mi SE 12.7 mph - 0.00 in   Overcast
11:34 AM 21.2 °F 11.7 °F 15.8 °F 80% 30.01 in 1.8 mi SSE 8.1 mph - 0.00 in Snow Light Snow
11:53 AM 21.9 °F 11.0 °F 16.0 °F 78% 30.14 in 1.8 mi SE 10.4 mph - 0.00 in Snow Light Snow
12:02 PM 21.2 °F 9.5 °F 15.8 °F 80% 30.01 in 2.0 mi SSE 11.5 mph - 0.00 in Snow Light Snow
12:15 PM 21.2 °F 9.5 °F 15.8 °F 80% 30.00 in 1.8 mi SSE 11.5 mph - 0.00 in Snow Light Snow
12:23 PM 21.2 °F 10.1 °F 15.8 °F 80% 30.00 in 2.5 mi SE 10.4 mph - 0.00 in Snow Light Snow
12:38 PM 21.2 °F 10.9 °F 15.8 °F 80% 30.00 in 1.8 mi SE 9.2 mph - 0.00 in Snow Light Snow
12:53 PM 21.9 °F 11.7 °F 17.1 °F 82% 30.12 in 1.8 mi SE 9.2 mph - 0.00 in Snow Light Snow
1:00 PM 23.0 °F 13.1 °F 17.6 °F 80% 29.99 in 2.5 mi SE 9.2 mph - 0.00 in Snow Light Snow
1:08 PM 23.0 °F 14.7 °F 17.6 °F 80% 29.99 in 4.0 mi SSE 6.9 mph - 0.00 in Snow Light Snow
1:53 PM 23.0 °F 13.9 °F 17.1 °F 78% 30.11 in 6.0 mi ESE 8.1 mph - 0.00 in Snow Light Snow
2:18 PM 24.8 °F 14.6 °F 17.6 °F 74% 29.98 in 6.0 mi ESE 10.4 mph - 0.00 in Snow Light Snow
2:29 PM 24.8 °F 14.6 °F 17.6 °F 74% 29.97 in 6.0 mi SE 10.4 mph - 0.00 in Snow Light Snow
2:53 PM 24.1 °F 13.1 °F 18.0 °F 77% 30.10 in 8.0 mi ESE 11.5 mph - 0.00 in   Overcast
3:53 PM 23.0 °F 13.1 °F 17.1 °F 78% 30.10 in 10.0 mi SE 9.2 mph - N/A   Overcast
4:50 PM 21.2 °F 10.9 °F 17.6 °F 86% 29.97 in 1.8 mi SE 9.2 mph - 0.00 in Snow Light Snow
4:53 PM 21.0 °F 9.9 °F 17.1 °F 85% 30.10 in 1.5 mi SE 10.4 mph - 0.00 in Snow Light Snow
5:11 PM 19.4 °F 9.5 °F 15.8 °F 86% 29.97 in 1.2 mi SE 8.1 mph - 0.00 in Snow Light Snow
5:29 PM 19.4 °F 9.5 °F 15.8 °F 86% 29.97 in 1.8 mi SE 8.1 mph - 0.00 in Snow Light Snow
5:36 PM 19.4 °F 9.5 °F 15.8 °F 86% 29.98 in 2.5 mi SE 8.1 mph - 0.00 in Snow Light Snow
5:44 PM 19.4 °F 9.5 °F 15.8 °F 86% 29.98 in 5.0 mi SE 8.1 mph - 0.00 in Snow Light Snow
5:53 PM 19.9 °F 10.1 °F 16.0 °F 85% 30.11 in 2.5 mi SE 8.1 mph - 0.00 in Snow Light Snow
6:02 PM 19.4 °F 9.5 °F 15.8 °F 86% 29.98 in 1.5 mi SE 8.1 mph - 0.00 in Snow Light Snow
6:12 PM 19.4 °F 9.5 °F 15.8 °F 86% 29.98 in 2.5 mi SE 8.1 mph - 0.00 in Snow Light Snow
6:15 PM 19.4 °F 11.5 °F 15.8 °F 86% 29.99 in 2.5 mi SE 5.8 mph - 0.00 in Snow Light Snow
6:25 PM 19.4 °F 10.4 °F 15.8 °F 86% 29.99 in 3.0 mi SE 6.9 mph - 0.00 in Snow Light Snow
6:34 PM 17.6 °F 9.3 °F 15.8 °F 93% 29.99 in 2.0 mi SE 5.8 mph - 0.00 in Snow Light Snow
6:47 PM 17.6 °F 9.3 °F 15.8 °F 93% 29.99 in 3.0 mi SSE 5.8 mph - 0.00 in Snow Light Snow
6:53 PM 18.0 °F 9.8 °F 14.0 °F 84% 30.13 in 4.0 mi SSE 5.8 mph - 0.00 in Snow Light Snow
7:24 PM 17.6 °F 7.3 °F 15.8 °F 93% 30.00 in 4.0 mi SSE 8.1 mph - 0.00 in Snow Light Snow
7:53 PM 18.0 °F 7.7 °F 14.0 °F 84% 30.12 in 7.0 mi SE 8.1 mph - 0.00 in Snow Light Snow
8:32 PM 17.6 °F 8.2 °F 15.8 °F 93% 29.99 in 3.0 mi SSE 6.9 mph - 0.00 in Snow Light Snow
8:49 PM 17.6 °F 9.3 °F 14.0 °F 86% 29.99 in 3.0 mi SSE 5.8 mph - 0.00 in Snow Light Snow
8:53 PM 18.0 °F 11.1 °F 14.0 °F 84% 30.12 in 3.0 mi SSE 4.6 mph - 0.00 in Snow Light Snow
9:14 PM 17.6 °F 8.2 °F 14.0 °F 86% 29.98 in 4.0 mi SE 6.9 mph - 0.00 in Snow Light Snow
9:25 PM 17.6 °F 7.3 °F 14.0 °F 86% 29.97 in 5.0 mi SE 8.1 mph - 0.00 in Snow Light Snow
9:53 PM 17.1 °F 7.6 °F 14.0 °F 88% 30.10 in 9.0 mi SE 6.9 mph - 0.00 in   Overcast
10:12 PM 17.6 °F 7.3 °F 14.0 °F 86% 29.97 in 10.0 mi SE 8.1 mph - N/A   Overcast
10:34 PM 17.6 °F 8.2 °F 15.8 °F 93% 29.96 in 9.0 mi SE 6.9 mph - N/A   Mostly Cloudy
10:41 PM 17.6 °F 9.3 °F 15.8 °F 93% 29.96 in 8.0 mi SE 5.8 mph - N/A   Overcast
10:53 PM 17.1 °F 8.7 °F 15.1 °F 92% 30.09 in 8.0 mi SE 5.8 mph - N/A   Overcast
11:53 PM 16.0 °F 7.4 °F 12.9 °F 88% 30.09 in 4.0 mi SE 5.8 mph - 0.00 in Snow Light Snow